sensor_id;sensor_type;location;lat;lon;timestamp;temperature;humidity
19348;DHT22;9810;52.480;9.806;2024-03-08T00:01:00;2.00;99.90
19348;DHT22;9810;52.480;9.806;2024-03-08T00:03:27;2.00;99.90
19348;DHT22;9810;52.480;9.806;2024-03-08T00:05:54;2.10;99.90
19348;DHT22;9810;52.480;9.806;2024-03-08T00:08:22;2.00;99.90
19348;DHT22;9810;52.480;9.806;2024-03-08T00:10:50;1.90;99.90
19348;DHT22;9810;52.480;9.806;2024-03-08T00:13:19;1.90;99.90
19348;DHT22;9810;52.480;9.806;2024-03-08T00:15:47;1.90;99.90
19348;DHT22;9810;52.480;9.806;2024-03-08T00:18:14;1.90;99.90
19348;DHT22;9810;52.480;9.806;2024-03-08T00:20:41;1.80;99.90
19348;DHT22;9810;52.480;9.806;2024-03-08T00:23:08;1.80;99.90
19348;DHT22;9810;52.480;9.806;2024-03-08T00:25:36;1.90;99.90
19348;DHT22;9810;52.480;9.806;2024-03-08T00:28:04;1.70;99.90
19348;DHT22;9810;52.480;9.806;2024-03-08T00:30:33;1.60;99.90
19348;DHT22;9810;52.480;9.806;2024-03-08T00:33:00;1.60;99.90
19348;DHT22;9810;52.480;9.806;2024-03-08T00:35:27;1.60;99.90
19348;DHT22;9810;52.480;9.806;2024-03-08T00:37:54;1.60;99.90
19348;DHT22;9810;52.480;9.806;2024-03-08T00:40:22;1.60;99.90
19348;DHT22;9810;52.480;9.806;2024-03-08T00:42:49;1.50;99.90
19348;DHT22;9810;52.480;9.806;2024-03-08T00:45:16;1.50;99.90
19348;DHT22;9810;52.480;9.806;2024-03-08T00:47:45;1.40;99.90
19348;DHT22;9810;52.480;9.806;2024-03-08T00:50:12;1.40;99.90
19348;DHT22;9810;52.480;9.806;2024-03-08T00:52:39;1.30;99.90
19348;DHT22;9810;52.480;9.806;2024-03-08T00:55:07;1.20;99.90
19348;DHT22;9810;52.480;9.806;2024-03-08T00:57:36;1.20;99.90
19348;DHT22;9810;52.480;9.806;2024-03-08T01:00:05;1.20;99.90
19348;DHT22;9810;52.480;9.806;2024-03-08T01:02:37;1.10;99.90
19348;DHT22;9810;52.480;9.806;2024-03-08T01:05:07;1.00;99.90
19348;DHT22;9810;52.480;9.806;2024-03-08T01:07:34;1.00;99.90
19348;DHT22;9810;52.480;9.806;2024-03-08T01:10:01;1.10;99.90
19348;DHT22;9810;52.480;9.806;2024-03-08T01:12:28;1.10;99.90
19348;DHT22;9810;52.480;9.806;2024-03-08T01:14:56;1.10;99.90
19348;DHT22;9810;52.480;9.806;2024-03-08T01:17:24;1.00;99.90
19348;DHT22;9810;52.480;9.806;2024-03-08T01:19:51;1.00;99.90
19348;DHT22;9810;52.480;9.806;2024-03-08T01:22:20;1.00;99.90
19348;DHT22;9810;52.480;9.806;2024-03-08T01:24:48;1.00;99.90
19348;DHT22;9810;52.480;9.806;2024-03-08T01:27:15;1.00;99.90
19348;DHT22;9810;52.480;9.806;2024-03-08T01:29:42;1.10;99.90
19348;DHT22;9810;52.480;9.806;2024-03-08T01:32:09;1.10;99.90
19348;DHT22;9810;52.480;9.806;2024-03-08T01:34:36;1.20;99.90
19348;DHT22;9810;52.480;9.806;2024-03-08T01:37:03;1.30;99.90
19348;DHT22;9810;52.480;9.806;2024-03-08T01:39:31;1.30;99.90
19348;DHT22;9810;52.480;9.806;2024-03-08T01:41:58;1.20;99.90
19348;DHT22;9810;52.480;9.806;2024-03-08T01:44:26;1.20;99.90
19348;DHT22;9810;52.480;9.806;2024-03-08T01:46:53;1.00;99.90
19348;DHT22;9810;52.480;9.806;2024-03-08T01:49:22;1.20;99.90
19348;DHT22;9810;52.480;9.806;2024-03-08T01:51:49;1.10;99.90
19348;DHT22;9810;52.480;9.806;2024-03-08T01:54:19;1.10;99.90
19348;DHT22;9810;52.480;9.806;2024-03-08T01:56:47;1.10;99.90
19348;DHT22;9810;52.480;9.806;2024-03-08T01:59:15;1.00;99.90
19348;DHT22;9810;52.480;9.806;2024-03-08T02:01:42;1.00;99.90
19348;DHT22;9810;52.480;9.806;2024-03-08T02:04:10;1.00;99.90
19348;DHT22;9810;52.480;9.806;2024-03-08T02:06:36;1.00;99.90
19348;DHT22;9810;52.480;9.806;2024-03-08T02:09:04;1.10;99.90
19348;DHT22;9810;52.480;9.806;2024-03-08T02:11:33;1.10;99.90
19348;DHT22;9810;52.480;9.806;2024-03-08T02:14:03;1.10;99.90
19348;DHT22;9810;52.480;9.806;2024-03-08T02:16:31;1.20;99.90
19348;DHT22;9810;52.480;9.806;2024-03-08T02:18:58;1.00;99.90
19348;DHT22;9810;52.480;9.806;2024-03-08T02:21:27;0.90;99.90
19348;DHT22;9810;52.480;9.806;2024-03-08T02:23:55;1.00;99.90
19348;DHT22;9810;52.480;9.806;2024-03-08T02:26:22;1.00;99.90
19348;DHT22;9810;52.480;9.806;2024-03-08T02:28:49;1.00;99.90
19348;DHT22;9810;52.480;9.806;2024-03-08T02:31:16;1.00;99.90
19348;DHT22;9810;52.480;9.806;2024-03-08T02:33:43;1.10;99.90
19348;DHT22;9810;52.480;9.806;2024-03-08T02:36:12;1.00;99.90
19348;DHT22;9810;52.480;9.806;2024-03-08T02:38:40;0.80;99.90
19348;DHT22;9810;52.480;9.806;2024-03-08T02:41:07;0.80;99.90
19348;DHT22;9810;52.480;9.806;2024-03-08T02:43:35;0.70;99.90
19348;DHT22;9810;52.480;9.806;2024-03-08T02:46:03;0.90;99.90
19348;DHT22;9810;52.480;9.806;2024-03-08T02:48:30;0.80;99.90
19348;DHT22;9810;52.480;9.806;2024-03-08T02:50:57;0.80;99.90
19348;DHT22;9810;52.480;9.806;2024-03-08T02:53:24;0.90;99.90
19348;DHT22;9810;52.480;9.806;2024-03-08T02:55:53;0.80;99.90
19348;DHT22;9810;52.480;9.806;2024-03-08T02:58:20;0.80;99.90
19348;DHT22;9810;52.480;9.806;2024-03-08T03:00:47;0.80;99.90
19348;DHT22;9810;52.480;9.806;2024-03-08T03:03:15;0.60;99.90
19348;DHT22;9810;52.480;9.806;2024-03-08T03:05:42;0.80;99.90
19348;DHT22;9810;52.480;9.806;2024-03-08T03:08:09;0.90;99.90
19348;DHT22;9810;52.480;9.806;2024-03-08T03:10:37;0.80;99.90
19348;DHT22;9810;52.480;9.806;2024-03-08T03:13:06;0.60;99.90
19348;DHT22;9810;52.480;9.806;2024-03-08T03:15:34;0.70;99.90
19348;DHT22;9810;52.480;9.806;2024-03-08T03:18:02;0.70;99.90
19348;DHT22;9810;52.480;9.806;2024-03-08T03:20:29;0.80;99.90
19348;DHT22;9810;52.480;9.806;2024-03-08T03:22:58;0.80;99.90
19348;DHT22;9810;52.480;9.806;2024-03-08T03:25:27;0.70;99.90
19348;DHT22;9810;52.480;9.806;2024-03-08T03:27:59;0.70;99.90
19348;DHT22;9810;52.480;9.806;2024-03-08T03:30:28;0.70;99.90
19348;DHT22;9810;52.480;9.806;2024-03-08T03:32:58;0.60;99.90
19348;DHT22;9810;52.480;9.806;2024-03-08T03:35:26;0.60;99.90
19348;DHT22;9810;52.480;9.806;2024-03-08T03:37:53;0.70;99.90
19348;DHT22;9810;52.480;9.806;2024-03-08T03:40:31;0.50;99.90
19348;DHT22;9810;52.480;9.806;2024-03-08T03:42:58;0.40;99.90
19348;DHT22;9810;52.480;9.806;2024-03-08T03:45:25;0.50;99.90
19348;DHT22;9810;52.480;9.806;2024-03-08T03:47:54;0.70;99.90
19348;DHT22;9810;52.480;9.806;2024-03-08T03:50:21;0.60;99.90
19348;DHT22;9810;52.480;9.806;2024-03-08T03:52:49;0.60;99.90
19348;DHT22;9810;52.480;9.806;2024-03-08T03:55:16;0.50;99.90
19348;DHT22;9810;52.480;9.806;2024-03-08T03:57:43;0.60;99.90
19348;DHT22;9810;52.480;9.806;2024-03-08T04:00:12;0.60;99.90
19348;DHT22;9810;52.480;9.806;2024-03-08T04:02:39;0.60;99.90
19348;DHT22;9810;52.480;9.806;2024-03-08T04:05:09;0.50;99.90
19348;DHT22;9810;52.480;9.806;2024-03-08T04:07:37;0.40;99.90
19348;DHT22;9810;52.480;9.806;2024-03-08T04:10:06;0.40;99.90
19348;DHT22;9810;52.480;9.806;2024-03-08T04:12:34;0.40;99.90
19348;DHT22;9810;52.480;9.806;2024-03-08T04:15:01;0.30;99.90
19348;DHT22;9810;52.480;9.806;2024-03-08T04:17:28;0.30;99.90
19348;DHT22;9810;52.480;9.806;2024-03-08T04:19:55;0.20;99.90
19348;DHT22;9810;52.480;9.806;2024-03-08T04:22:24;0.50;99.90
19348;DHT22;9810;52.480;9.806;2024-03-08T04:24:51;0.40;99.90
19348;DHT22;9810;52.480;9.806;2024-03-08T04:27:18;0.40;99.90
19348;DHT22;9810;52.480;9.806;2024-03-08T04:29:44;0.30;99.90
19348;DHT22;9810;52.480;9.806;2024-03-08T04:32:12;0.30;99.90
19348;DHT22;9810;52.480;9.806;2024-03-08T04:34:39;0.50;99.90
19348;DHT22;9810;52.480;9.806;2024-03-08T04:37:06;0.20;99.90
19348;DHT22;9810;52.480;9.806;2024-03-08T04:39:38;0.20;99.90
19348;DHT22;9810;52.480;9.806;2024-03-08T04:42:05;0.30;99.90
19348;DHT22;9810;52.480;9.806;2024-03-08T04:44:35;0.20;99.90
19348;DHT22;9810;52.480;9.806;2024-03-08T04:47:03;0.20;99.90
19348;DHT22;9810;52.480;9.806;2024-03-08T04:49:31;0.20;99.90
19348;DHT22;9810;52.480;9.806;2024-03-08T04:52:01;0.10;99.90
19348;DHT22;9810;52.480;9.806;2024-03-08T04:54:28;0.20;99.90
19348;DHT22;9810;52.480;9.806;2024-03-08T04:56:57;0.30;99.90
19348;DHT22;9810;52.480;9.806;2024-03-08T04:59:25;0.30;99.90
19348;DHT22;9810;52.480;9.806;2024-03-08T05:01:53;0.30;99.90
19348;DHT22;9810;52.480;9.806;2024-03-08T05:04:20;0.30;99.90
19348;DHT22;9810;52.480;9.806;2024-03-08T05:06:47;0.10;99.90
19348;DHT22;9810;52.480;9.806;2024-03-08T05:09:15;0.10;99.90
19348;DHT22;9810;52.480;9.806;2024-03-08T05:11:43;0.30;99.90
19348;DHT22;9810;52.480;9.806;2024-03-08T05:14:12;0.20;99.90
19348;DHT22;9810;52.480;9.806;2024-03-08T05:16:42;0.40;99.90
19348;DHT22;9810;52.480;9.806;2024-03-08T05:19:09;0.30;99.90
19348;DHT22;9810;52.480;9.806;2024-03-08T05:21:36;0.20;99.90
19348;DHT22;9810;52.480;9.806;2024-03-08T05:24:03;0.30;99.90
19348;DHT22;9810;52.480;9.806;2024-03-08T05:26:30;0.30;99.90
19348;DHT22;9810;52.480;9.806;2024-03-08T05:28:59;0.20;99.90
19348;DHT22;9810;52.480;9.806;2024-03-08T05:31:27;0.10;99.90
19348;DHT22;9810;52.480;9.806;2024-03-08T05:33:54;0.30;99.90
19348;DHT22;9810;52.480;9.806;2024-03-08T05:36:22;0.50;99.90
19348;DHT22;9810;52.480;9.806;2024-03-08T05:38:49;0.50;99.90
19348;DHT22;9810;52.480;9.806;2024-03-08T05:41:16;0.30;99.90
19348;DHT22;9810;52.480;9.806;2024-03-08T05:43:43;0.40;99.90
19348;DHT22;9810;52.480;9.806;2024-03-08T05:46:10;0.30;99.90
19348;DHT22;9810;52.480;9.806;2024-03-08T05:48:39;0.30;99.90
19348;DHT22;9810;52.480;9.806;2024-03-08T05:51:06;0.20;99.90
19348;DHT22;9810;52.480;9.806;2024-03-08T05:53:33;0.40;99.90
19348;DHT22;9810;52.480;9.806;2024-03-08T05:56:01;0.50;99.90
19348;DHT22;9810;52.480;9.806;2024-03-08T05:58:29;0.40;99.90
19348;DHT22;9810;52.480;9.806;2024-03-08T06:00:57;0.40;99.90
19348;DHT22;9810;52.480;9.806;2024-03-08T06:03:24;0.50;99.90
19348;DHT22;9810;52.480;9.806;2024-03-08T06:05:52;0.40;99.90
19348;DHT22;9810;52.480;9.806;2024-03-08T06:08:19;0.40;99.90
19348;DHT22;9810;52.480;9.806;2024-03-08T06:10:47;0.60;99.90
19348;DHT22;9810;52.480;9.806;2024-03-08T06:13:18;0.60;99.90
19348;DHT22;9810;52.480;9.806;2024-03-08T06:15:45;0.50;99.90
19348;DHT22;9810;52.480;9.806;2024-03-08T06:18:12;0.60;99.90
19348;DHT22;9810;52.480;9.806;2024-03-08T06:20:40;0.60;99.90
19348;DHT22;9810;52.480;9.806;2024-03-08T06:23:10;0.60;99.90
19348;DHT22;9810;52.480;9.806;2024-03-08T06:25:37;0.60;99.90
19348;DHT22;9810;52.480;9.806;2024-03-08T06:28:05;0.70;99.90
19348;DHT22;9810;52.480;9.806;2024-03-08T06:30:32;0.50;99.90
19348;DHT22;9810;52.480;9.806;2024-03-08T06:33:00;0.50;99.90
19348;DHT22;9810;52.480;9.806;2024-03-08T06:35:27;0.50;99.90
19348;DHT22;9810;52.480;9.806;2024-03-08T06:37:57;0.60;99.90
19348;DHT22;9810;52.480;9.806;2024-03-08T06:40:26;0.60;99.90
19348;DHT22;9810;52.480;9.806;2024-03-08T06:42:53;0.70;99.90
19348;DHT22;9810;52.480;9.806;2024-03-08T06:45:20;0.80;99.90
19348;DHT22;9810;52.480;9.806;2024-03-08T06:47:49;1.00;99.90
19348;DHT22;9810;52.480;9.806;2024-03-08T06:50:16;0.80;99.90
19348;DHT22;9810;52.480;9.806;2024-03-08T06:52:43;1.00;99.90
19348;DHT22;9810;52.480;9.806;2024-03-08T06:55:13;1.00;99.90
19348;DHT22;9810;52.480;9.806;2024-03-08T06:57:42;0.90;99.90
19348;DHT22;9810;52.480;9.806;2024-03-08T07:00:10;1.80;99.90
19348;DHT22;9810;52.480;9.806;2024-03-08T07:02:43;1.50;99.90
19348;DHT22;9810;52.480;9.806;2024-03-08T07:05:11;1.50;99.90
19348;DHT22;9810;52.480;9.806;2024-03-08T07:07:38;1.50;99.90
19348;DHT22;9810;52.480;9.806;2024-03-08T07:10:07;1.40;99.90
19348;DHT22;9810;52.480;9.806;2024-03-08T07:12:36;1.40;99.90
19348;DHT22;9810;52.480;9.806;2024-03-08T07:15:06;1.50;99.90
19348;DHT22;9810;52.480;9.806;2024-03-08T07:17:33;1.70;99.90
19348;DHT22;9810;52.480;9.806;2024-03-08T07:20:01;1.80;99.90
19348;DHT22;9810;52.480;9.806;2024-03-08T07:22:37;1.70;99.90
19348;DHT22;9810;52.480;9.806;2024-03-08T07:25:05;1.70;99.90
19348;DHT22;9810;52.480;9.806;2024-03-08T07:27:46;2.20;99.90
19348;DHT22;9810;52.480;9.806;2024-03-08T07:30:15;2.00;99.90
19348;DHT22;9810;52.480;9.806;2024-03-08T07:33:04;2.20;99.90
19348;DHT22;9810;52.480;9.806;2024-03-08T07:35:32;3.10;99.90
19348;DHT22;9810;52.480;9.806;2024-03-08T07:38:03;3.40;99.90
19348;DHT22;9810;52.480;9.806;2024-03-08T07:40:31;3.10;99.90
19348;DHT22;9810;52.480;9.806;2024-03-08T07:42:58;3.00;99.90
19348;DHT22;9810;52.480;9.806;2024-03-08T07:45:27;3.40;99.90
19348;DHT22;9810;52.480;9.806;2024-03-08T07:47:54;3.40;99.90
19348;DHT22;9810;52.480;9.806;2024-03-08T07:50:22;3.80;99.90
19348;DHT22;9810;52.480;9.806;2024-03-08T07:52:49;4.00;99.90
19348;DHT22;9810;52.480;9.806;2024-03-08T07:55:16;4.30;99.90
19348;DHT22;9810;52.480;9.806;2024-03-08T07:57:44;4.50;99.90
19348;DHT22;9810;52.480;9.806;2024-03-08T08:00:13;4.70;99.90
19348;DHT22;9810;52.480;9.806;2024-03-08T08:02:45;5.00;99.90
19348;DHT22;9810;52.480;9.806;2024-03-08T08:05:12;5.50;99.90
19348;DHT22;9810;52.480;9.806;2024-03-08T08:07:39;6.00;99.90
19348;DHT22;9810;52.480;9.806;2024-03-08T08:10:09;6.00;99.90
19348;DHT22;9810;52.480;9.806;2024-03-08T08:12:44;6.30;99.90
19348;DHT22;9810;52.480;9.806;2024-03-08T08:15:11;6.30;99.90
19348;DHT22;9810;52.480;9.806;2024-03-08T08:17:38;6.30;99.90
19348;DHT22;9810;52.480;9.806;2024-03-08T08:20:09;6.40;99.90
19348;DHT22;9810;52.480;9.806;2024-03-08T08:22:37;6.70;99.90
19348;DHT22;9810;52.480;9.806;2024-03-08T08:25:05;7.00;99.90
19348;DHT22;9810;52.480;9.806;2024-03-08T08:27:32;6.60;99.90
19348;DHT22;9810;52.480;9.806;2024-03-08T08:29:59;6.40;99.90
19348;DHT22;9810;52.480;9.806;2024-03-08T08:32:27;6.90;99.90
19348;DHT22;9810;52.480;9.806;2024-03-08T08:34:53;7.20;99.90
19348;DHT22;9810;52.480;9.806;2024-03-08T08:37:23;6.80;99.90
19348;DHT22;9810;52.480;9.806;2024-03-08T08:39:50;8.00;99.90
19348;DHT22;9810;52.480;9.806;2024-03-08T08:42:18;7.60;99.90
19348;DHT22;9810;52.480;9.806;2024-03-08T08:44:45;7.10;99.90
19348;DHT22;9810;52.480;9.806;2024-03-08T08:47:12;7.00;99.90
19348;DHT22;9810;52.480;9.806;2024-03-08T08:49:39;7.60;99.90
19348;DHT22;9810;52.480;9.806;2024-03-08T08:52:06;6.60;99.90
19348;DHT22;9810;52.480;9.806;2024-03-08T08:54:36;7.20;99.90
19348;DHT22;9810;52.480;9.806;2024-03-08T08:57:03;7.40;99.90
19348;DHT22;9810;52.480;9.806;2024-03-08T08:59:33;8.30;99.90
19348;DHT22;9810;52.480;9.806;2024-03-08T09:02:01;8.10;99.90
19348;DHT22;9810;52.480;9.806;2024-03-08T09:04:29;8.30;99.90
19348;DHT22;9810;52.480;9.806;2024-03-08T09:06:56;9.30;99.90
19348;DHT22;9810;52.480;9.806;2024-03-08T09:09:23;8.90;99.90
19348;DHT22;9810;52.480;9.806;2024-03-08T09:11:52;8.60;99.90
19348;DHT22;9810;52.480;9.806;2024-03-08T09:14:19;7.70;99.90
19348;DHT22;9810;52.480;9.806;2024-03-08T09:16:47;7.80;99.90
19348;DHT22;9810;52.480;9.806;2024-03-08T09:19:14;7.70;99.90
19348;DHT22;9810;52.480;9.806;2024-03-08T09:21:41;8.70;99.90
19348;DHT22;9810;52.480;9.806;2024-03-08T09:24:07;8.10;99.90
19348;DHT22;9810;52.480;9.806;2024-03-08T09:26:34;8.80;99.90
19348;DHT22;9810;52.480;9.806;2024-03-08T09:29:04;8.60;99.90
19348;DHT22;9810;52.480;9.806;2024-03-08T09:31:32;8.90;99.90
19348;DHT22;9810;52.480;9.806;2024-03-08T09:33:59;8.60;99.90
19348;DHT22;9810;52.480;9.806;2024-03-08T09:36:27;8.50;99.90
19348;DHT22;9810;52.480;9.806;2024-03-08T09:38:54;8.30;99.90
19348;DHT22;9810;52.480;9.806;2024-03-08T09:41:21;8.60;99.90
19348;DHT22;9810;52.480;9.806;2024-03-08T09:43:48;9.60;99.90
19348;DHT22;9810;52.480;9.806;2024-03-08T09:46:17;10.50;99.90
19348;DHT22;9810;52.480;9.806;2024-03-08T09:48:45;9.90;99.90
19348;DHT22;9810;52.480;9.806;2024-03-08T09:51:13;10.00;99.90
19348;DHT22;9810;52.480;9.806;2024-03-08T09:53:41;9.00;99.90
19348;DHT22;9810;52.480;9.806;2024-03-08T09:56:08;10.20;99.90
19348;DHT22;9810;52.480;9.806;2024-03-08T09:58:37;9.50;99.90
19348;DHT22;9810;52.480;9.806;2024-03-08T10:01:21;8.60;99.90
19348;DHT22;9810;52.480;9.806;2024-03-08T10:03:48;9.70;99.90
19348;DHT22;9810;52.480;9.806;2024-03-08T10:06:15;9.10;99.90
19348;DHT22;9810;52.480;9.806;2024-03-08T10:08:42;9.80;99.90
19348;DHT22;9810;52.480;9.806;2024-03-08T10:11:10;10.00;99.90
19348;DHT22;9810;52.480;9.806;2024-03-08T10:13:38;9.90;99.90
19348;DHT22;9810;52.480;9.806;2024-03-08T10:16:06;10.50;99.90
19348;DHT22;9810;52.480;9.806;2024-03-08T10:18:36;11.10;99.90
19348;DHT22;9810;52.480;9.806;2024-03-08T10:21:03;10.20;99.90
19348;DHT22;9810;52.480;9.806;2024-03-08T10:23:31;10.60;99.90
19348;DHT22;9810;52.480;9.806;2024-03-08T10:26:09;11.40;99.90
19348;DHT22;9810;52.480;9.806;2024-03-08T10:28:36;10.40;99.90
19348;DHT22;9810;52.480;9.806;2024-03-08T10:31:04;10.30;99.90
19348;DHT22;9810;52.480;9.806;2024-03-08T10:33:32;10.60;99.90
19348;DHT22;9810;52.480;9.806;2024-03-08T10:36:01;10.10;99.90
19348;DHT22;9810;52.480;9.806;2024-03-08T10:38:30;10.00;99.90
19348;DHT22;9810;52.480;9.806;2024-03-08T10:40:59;10.10;99.90
19348;DHT22;9810;52.480;9.806;2024-03-08T10:43:28;10.40;99.90
19348;DHT22;9810;52.480;9.806;2024-03-08T10:46:10;10.50;99.90
19348;DHT22;9810;52.480;9.806;2024-03-08T10:48:44;10.80;99.90
19348;DHT22;9810;52.480;9.806;2024-03-08T10:51:14;10.10;99.90
19348;DHT22;9810;52.480;9.806;2024-03-08T10:53:42;10.50;99.90
19348;DHT22;9810;52.480;9.806;2024-03-08T10:56:11;9.90;99.90
19348;DHT22;9810;52.480;9.806;2024-03-08T10:58:41;10.40;99.90
19348;DHT22;9810;52.480;9.806;2024-03-08T11:01:10;10.60;99.90
19348;DHT22;9810;52.480;9.806;2024-03-08T11:03:47;10.90;99.90
19348;DHT22;9810;52.480;9.806;2024-03-08T11:06:23;10.80;99.90
19348;DHT22;9810;52.480;9.806;2024-03-08T11:08:50;10.30;99.90
19348;DHT22;9810;52.480;9.806;2024-03-08T11:11:25;10.30;99.90
19348;DHT22;9810;52.480;9.806;2024-03-08T11:13:56;10.60;99.90
19348;DHT22;9810;52.480;9.806;2024-03-08T11:16:39;10.20;99.90
19348;DHT22;9810;52.480;9.806;2024-03-08T11:19:30;10.00;99.90
19348;DHT22;9810;52.480;9.806;2024-03-08T11:22:03;10.00;99.90
19348;DHT22;9810;52.480;9.806;2024-03-08T11:24:37;9.90;99.90
19348;DHT22;9810;52.480;9.806;2024-03-08T11:27:06;9.50;99.90
19348;DHT22;9810;52.480;9.806;2024-03-08T11:29:38;10.00;99.90
19348;DHT22;9810;52.480;9.806;2024-03-08T11:32:10;10.20;99.90
19348;DHT22;9810;52.480;9.806;2024-03-08T11:34:38;9.60;99.90
19348;DHT22;9810;52.480;9.806;2024-03-08T11:37:11;9.90;99.90
19348;DHT22;9810;52.480;9.806;2024-03-08T11:39:39;9.80;99.90
19348;DHT22;9810;52.480;9.806;2024-03-08T11:42:06;9.90;99.90
19348;DHT22;9810;52.480;9.806;2024-03-08T11:44:33;9.10;99.90
19348;DHT22;9810;52.480;9.806;2024-03-08T11:47:01;9.10;99.90
19348;DHT22;9810;52.480;9.806;2024-03-08T11:49:31;8.90;99.90
19348;DHT22;9810;52.480;9.806;2024-03-08T11:51:59;8.70;99.90
19348;DHT22;9810;52.480;9.806;2024-03-08T11:54:27;8.90;99.90
19348;DHT22;9810;52.480;9.806;2024-03-08T11:56:55;8.70;99.90
19348;DHT22;9810;52.480;9.806;2024-03-08T11:59:27;8.60;99.90
19348;DHT22;9810;52.480;9.806;2024-03-08T12:02:01;9.60;99.90
19348;DHT22;9810;52.480;9.806;2024-03-08T12:04:30;9.20;99.90
19348;DHT22;9810;52.480;9.806;2024-03-08T12:07:09;9.50;99.90
19348;DHT22;9810;52.480;9.806;2024-03-08T12:09:39;9.30;99.90
19348;DHT22;9810;52.480;9.806;2024-03-08T12:12:07;8.90;99.90
19348;DHT22;9810;52.480;9.806;2024-03-08T12:14:34;8.70;99.90
19348;DHT22;9810;52.480;9.806;2024-03-08T12:17:02;8.90;99.90
19348;DHT22;9810;52.480;9.806;2024-03-08T12:19:30;8.70;99.90
19348;DHT22;9810;52.480;9.806;2024-03-08T12:22:08;9.00;99.90
19348;DHT22;9810;52.480;9.806;2024-03-08T12:24:36;8.70;99.90
19348;DHT22;9810;52.480;9.806;2024-03-08T12:27:20;9.10;99.90
19348;DHT22;9810;52.480;9.806;2024-03-08T12:29:47;8.80;99.90
19348;DHT22;9810;52.480;9.806;2024-03-08T12:32:14;8.90;99.90
19348;DHT22;9810;52.480;9.806;2024-03-08T12:34:42;8.90;99.90
19348;DHT22;9810;52.480;9.806;2024-03-08T12:37:11;9.20;99.90
19348;DHT22;9810;52.480;9.806;2024-03-08T12:39:40;9.10;99.90
19348;DHT22;9810;52.480;9.806;2024-03-08T12:42:07;9.30;99.90
19348;DHT22;9810;52.480;9.806;2024-03-08T12:44:36;9.00;99.90
19348;DHT22;9810;52.480;9.806;2024-03-08T12:47:08;9.00;99.90
19348;DHT22;9810;52.480;9.806;2024-03-08T12:49:35;9.10;99.90
19348;DHT22;9810;52.480;9.806;2024-03-08T12:52:03;8.80;99.90
19348;DHT22;9810;52.480;9.806;2024-03-08T12:54:30;9.00;99.90
19348;DHT22;9810;52.480;9.806;2024-03-08T12:56:57;9.30;99.90
19348;DHT22;9810;52.480;9.806;2024-03-08T12:59:24;9.60;99.90
19348;DHT22;9810;52.480;9.806;2024-03-08T13:01:53;9.40;99.90
19348;DHT22;9810;52.480;9.806;2024-03-08T13:04:24;9.50;99.90
19348;DHT22;9810;52.480;9.806;2024-03-08T13:06:51;9.30;99.90
19348;DHT22;9810;52.480;9.806;2024-03-08T13:09:20;9.30;99.90
19348;DHT22;9810;52.480;9.806;2024-03-08T13:11:47;9.30;99.90
19348;DHT22;9810;52.480;9.806;2024-03-08T13:14:14;9.60;99.90
19348;DHT22;9810;52.480;9.806;2024-03-08T13:16:42;9.50;99.90
19348;DHT22;9810;52.480;9.806;2024-03-08T13:19:15;9.40;99.90
19348;DHT22;9810;52.480;9.806;2024-03-08T13:21:42;9.30;99.90
19348;DHT22;9810;52.480;9.806;2024-03-08T13:24:09;9.50;99.90
19348;DHT22;9810;52.480;9.806;2024-03-08T13:26:37;9.30;99.90
19348;DHT22;9810;52.480;9.806;2024-03-08T13:29:03;9.60;99.90
19348;DHT22;9810;52.480;9.806;2024-03-08T13:31:32;9.50;99.90
19348;DHT22;9810;52.480;9.806;2024-03-08T13:33:59;9.50;99.90
19348;DHT22;9810;52.480;9.806;2024-03-08T13:36:27;9.60;99.90
19348;DHT22;9810;52.480;9.806;2024-03-08T13:39:04;9.50;99.90
19348;DHT22;9810;52.480;9.806;2024-03-08T13:41:40;9.50;99.90
19348;DHT22;9810;52.480;9.806;2024-03-08T13:44:07;9.50;99.90
19348;DHT22;9810;52.480;9.806;2024-03-08T13:46:34;9.60;99.90
19348;DHT22;9810;52.480;9.806;2024-03-08T13:49:05;9.50;99.90
19348;DHT22;9810;52.480;9.806;2024-03-08T13:51:35;9.60;99.90
19348;DHT22;9810;52.480;9.806;2024-03-08T13:54:02;9.70;99.90
19348;DHT22;9810;52.480;9.806;2024-03-08T13:56:32;9.40;99.90
19348;DHT22;9810;52.480;9.806;2024-03-08T13:58:59;9.40;99.90
19348;DHT22;9810;52.480;9.806;2024-03-08T14:01:32;9.60;99.90
19348;DHT22;9810;52.480;9.806;2024-03-08T14:04:13;9.50;99.90
19348;DHT22;9810;52.480;9.806;2024-03-08T14:06:41;9.40;99.90
19348;DHT22;9810;52.480;9.806;2024-03-08T14:09:10;9.60;99.90
19348;DHT22;9810;52.480;9.806;2024-03-08T14:11:42;9.80;99.90
19348;DHT22;9810;52.480;9.806;2024-03-08T14:14:10;9.60;99.90
19348;DHT22;9810;52.480;9.806;2024-03-08T14:16:38;9.50;99.90
19348;DHT22;9810;52.480;9.806;2024-03-08T14:19:05;9.50;99.90
19348;DHT22;9810;52.480;9.806;2024-03-08T14:21:32;9.70;99.90
19348;DHT22;9810;52.480;9.806;2024-03-08T14:24:01;9.50;99.90
19348;DHT22;9810;52.480;9.806;2024-03-08T14:26:30;9.70;99.90
19348;DHT22;9810;52.480;9.806;2024-03-08T14:28:57;9.90;99.90
19348;DHT22;9810;52.480;9.806;2024-03-08T14:31:24;9.80;99.90
19348;DHT22;9810;52.480;9.806;2024-03-08T14:33:51;9.60;99.90
19348;DHT22;9810;52.480;9.806;2024-03-08T14:36:18;9.70;99.90
19348;DHT22;9810;52.480;9.806;2024-03-08T14:38:46;9.60;99.90
19348;DHT22;9810;52.480;9.806;2024-03-08T14:41:15;9.90;99.90
19348;DHT22;9810;52.480;9.806;2024-03-08T14:43:42;10.00;99.90
19348;DHT22;9810;52.480;9.806;2024-03-08T14:46:11;9.70;99.90
19348;DHT22;9810;52.480;9.806;2024-03-08T14:48:42;9.80;99.90
19348;DHT22;9810;52.480;9.806;2024-03-08T14:51:09;9.50;99.90
19348;DHT22;9810;52.480;9.806;2024-03-08T14:53:40;9.50;99.90
19348;DHT22;9810;52.480;9.806;2024-03-08T14:56:08;9.70;99.90
19348;DHT22;9810;52.480;9.806;2024-03-08T14:58:36;9.30;99.90
19348;DHT22;9810;52.480;9.806;2024-03-08T15:01:04;9.40;99.90
19348;DHT22;9810;52.480;9.806;2024-03-08T15:03:35;9.50;99.90
19348;DHT22;9810;52.480;9.806;2024-03-08T15:06:03;9.40;99.90
19348;DHT22;9810;52.480;9.806;2024-03-08T15:08:34;9.60;99.90
19348;DHT22;9810;52.480;9.806;2024-03-08T15:11:01;9.60;99.90
19348;DHT22;9810;52.480;9.806;2024-03-08T15:13:28;9.50;99.90
19348;DHT22;9810;52.480;9.806;2024-03-08T15:16:07;9.50;99.90
19348;DHT22;9810;52.480;9.806;2024-03-08T15:18:35;9.60;99.90
19348;DHT22;9810;52.480;9.806;2024-03-08T15:21:04;9.60;99.90
19348;DHT22;9810;52.480;9.806;2024-03-08T15:23:34;9.60;99.90
19348;DHT22;9810;52.480;9.806;2024-03-08T15:26:01;9.80;99.90
19348;DHT22;9810;52.480;9.806;2024-03-08T15:28:29;9.60;99.90
19348;DHT22;9810;52.480;9.806;2024-03-08T15:31:03;9.90;99.90
19348;DHT22;9810;52.480;9.806;2024-03-08T15:33:34;10.30;99.90
19348;DHT22;9810;52.480;9.806;2024-03-08T15:36:07;9.80;99.90
19348;DHT22;9810;52.480;9.806;2024-03-08T15:38:35;9.40;99.90
19348;DHT22;9810;52.480;9.806;2024-03-08T15:41:02;9.50;99.90
19348;DHT22;9810;52.480;9.806;2024-03-08T15:43:35;9.40;99.90
19348;DHT22;9810;52.480;9.806;2024-03-08T15:46:02;9.20;99.90
19348;DHT22;9810;52.480;9.806;2024-03-08T15:48:33;9.20;99.90
19348;DHT22;9810;52.480;9.806;2024-03-08T15:51:01;9.10;99.90
19348;DHT22;9810;52.480;9.806;2024-03-08T15:53:30;9.00;99.90
19348;DHT22;9810;52.480;9.806;2024-03-08T15:55:57;9.10;99.90
19348;DHT22;9810;52.480;9.806;2024-03-08T15:58:25;9.00;99.90
19348;DHT22;9810;52.480;9.806;2024-03-08T16:00:52;8.90;99.90
19348;DHT22;9810;52.480;9.806;2024-03-08T16:03:21;9.10;99.90
19348;DHT22;9810;52.480;9.806;2024-03-08T16:05:50;9.00;99.90
19348;DHT22;9810;52.480;9.806;2024-03-08T16:08:18;8.90;99.90